sensor_id;sensor_type;location;lat;lon;timestamp;P1;durP1;ratioP1;P2;durP2;ratioP2
55931;SDS011;41837;55.700;37.984;2023-04-12T00:02:15;108.47;;;52.55;;
55931;SDS011;41837;55.700;37.984;2023-04-12T00:04:42;113.13;;;54.60;;
55931;SDS011;41837;55.700;37.984;2023-04-12T00:07:08;102.65;;;53.42;;
55931;SDS011;41837;55.700;37.984;2023-04-12T00:09:34;117.03;;;56.65;;
55931;SDS011;41837;55.700;37.984;2023-04-12T00:12:03;114.72;;;54.40;;
55931;SDS011;41837;55.700;37.984;2023-04-12T00:14:30;105.75;;;53.95;;
55931;SDS011;41837;55.700;37.984;2023-04-12T00:16:56;108.00;;;54.08;;
55931;SDS011;41837;55.700;37.984;2023-04-12T00:19:23;111.50;;;55.13;;
55931;SDS011;41837;55.700;37.984;2023-04-12T00:21:50;108.78;;;53.03;;
55931;SDS011;41837;55.700;37.984;2023-04-12T00:24:16;120.03;;;55.35;;
55931;SDS011;41837;55.700;37.984;2023-04-12T00:26:44;124.13;;;55.28;;
55931;SDS011;41837;55.700;37.984;2023-04-12T00:29:10;113.22;;;54.35;;
55931;SDS011;41837;55.700;37.984;2023-04-12T00:31:36;111.97;;;54.80;;
55931;SDS011;41837;55.700;37.984;2023-04-12T00:34:02;120.28;;;56.90;;
55931;SDS011;41837;55.700;37.984;2023-04-12T00:36:28;126.75;;;56.75;;
55931;SDS011;41837;55.700;37.984;2023-04-12T00:38:54;129.52;;;60.80;;
55931;SDS011;41837;55.700;37.984;2023-04-12T00:41:21;123.65;;;57.88;;
55931;SDS011;41837;55.700;37.984;2023-04-12T00:43:49;124.88;;;58.63;;
55931;SDS011;41837;55.700;37.984;2023-04-12T00:46:16;127.80;;;55.08;;
55931;SDS011;41837;55.700;37.984;2023-04-12T00:48:44;135.38;;;59.10;;
55931;SDS011;41837;55.700;37.984;2023-04-12T00:51:12;134.02;;;58.03;;
55931;SDS011;41837;55.700;37.984;2023-04-12T00:53:38;134.05;;;55.28;;
55931;SDS011;41837;55.700;37.984;2023-04-12T00:56:06;128.07;;;55.72;;
55931;SDS011;41837;55.700;37.984;2023-04-12T00:58:32;127.68;;;60.55;;
55931;SDS011;41837;55.700;37.984;2023-04-12T01:00:59;138.75;;;58.83;;
55931;SDS011;41837;55.700;37.984;2023-04-12T01:03:24;123.05;;;57.53;;
55931;SDS011;41837;55.700;37.984;2023-04-12T01:08:31;128.77;;;56.55;;
55931;SDS011;41837;55.700;37.984;2023-04-12T01:14:15;140.57;;;59.05;;
55931;SDS011;41837;55.700;37.984;2023-04-12T01:16:56;140.48;;;59.30;;
55931;SDS011;41837;55.700;37.984;2023-04-12T01:19:32;162.85;;;63.55;;
55931;SDS011;41837;55.700;37.984;2023-04-12T01:27:55;145.00;;;60.58;;
55931;SDS011;41837;55.700;37.984;2023-04-12T01:30:25;143.60;;;61.03;;
55931;SDS011;41837;55.700;37.984;2023-04-12T01:32:54;160.95;;;62.60;;
55931;SDS011;41837;55.700;37.984;2023-04-12T01:35:23;142.75;;;62.25;;
55931;SDS011;41837;55.700;37.984;2023-04-12T01:37:53;129.73;;;64.72;;
55931;SDS011;41837;55.700;37.984;2023-04-12T01:40:22;139.27;;;64.18;;
55931;SDS011;41837;55.700;37.984;2023-04-12T01:43:02;140.57;;;62.13;;
55931;SDS011;41837;55.700;37.984;2023-04-12T01:45:30;133.35;;;60.25;;
55931;SDS011;41837;55.700;37.984;2023-04-12T01:47:56;138.65;;;62.53;;
55931;SDS011;41837;55.700;37.984;2023-04-12T01:50:24;139.25;;;62.80;;
55931;SDS011;41837;55.700;37.984;2023-04-12T01:53:05;149.43;;;61.85;;
55931;SDS011;41837;55.700;37.984;2023-04-12T01:55:38;136.77;;;62.85;;
55931;SDS011;41837;55.700;37.984;2023-04-12T01:58:09;141.32;;;59.47;;
55931;SDS011;41837;55.700;37.984;2023-04-12T02:00:37;128.75;;;59.95;;
55931;SDS011;41837;55.700;37.984;2023-04-12T02:03:05;137.80;;;59.53;;
55931;SDS011;41837;55.700;37.984;2023-04-12T02:05:33;121.90;;;60.83;;
55931;SDS011;41837;55.700;37.984;2023-04-12T02:08:01;129.05;;;61.28;;
55931;SDS011;41837;55.700;37.984;2023-04-12T02:10:29;129.75;;;61.88;;
55931;SDS011;41837;55.700;37.984;2023-04-12T02:12:57;135.43;;;60.50;;
55931;SDS011;41837;55.700;37.984;2023-04-12T02:15:25;130.13;;;60.88;;
55931;SDS011;41837;55.700;37.984;2023-04-12T02:17:55;132.27;;;61.65;;
55931;SDS011;41837;55.700;37.984;2023-04-12T02:20:22;133.90;;;60.35;;
55931;SDS011;41837;55.700;37.984;2023-04-12T02:22:48;143.48;;;61.40;;
55931;SDS011;41837;55.700;37.984;2023-04-12T02:25:15;117.25;;;57.63;;
55931;SDS011;41837;55.700;37.984;2023-04-12T02:27:46;130.52;;;60.45;;
55931;SDS011;41837;55.700;37.984;2023-04-12T02:30:13;122.50;;;60.83;;
55931;SDS011;41837;55.700;37.984;2023-04-12T02:32:44;127.47;;;58.35;;
55931;SDS011;41837;55.700;37.984;2023-04-12T02:35:17;136.95;;;60.75;;
55931;SDS011;41837;55.700;37.984;2023-04-12T02:37:47;118.57;;;55.35;;
55931;SDS011;41837;55.700;37.984;2023-04-12T02:40:14;116.40;;;56.58;;
55931;SDS011;41837;55.700;37.984;2023-04-12T02:42:40;113.93;;;53.08;;
55931;SDS011;41837;55.700;37.984;2023-04-12T02:45:09;129.32;;;55.17;;
55931;SDS011;41837;55.700;37.984;2023-04-12T02:47:38;116.53;;;54.08;;
55931;SDS011;41837;55.700;37.984;2023-04-12T02:50:07;128.45;;;54.20;;
55931;SDS011;41837;55.700;37.984;2023-04-12T02:52:43;115.00;;;53.45;;
55931;SDS011;41837;55.700;37.984;2023-04-12T02:55:10;127.30;;;55.17;;
55931;SDS011;41837;55.700;37.984;2023-04-12T02:57:35;126.28;;;54.50;;
55931;SDS011;41837;55.700;37.984;2023-04-12T03:00:04;123.93;;;54.05;;
55931;SDS011;41837;55.700;37.984;2023-04-12T03:02:42;121.45;;;53.78;;
55931;SDS011;41837;55.700;37.984;2023-04-12T03:05:17;128.25;;;53.92;;
55931;SDS011;41837;55.700;37.984;2023-04-12T03:07:43;134.55;;;54.83;;
55931;SDS011;41837;55.700;37.984;2023-04-12T03:10:11;157.73;;;56.92;;
55931;SDS011;41837;55.700;37.984;2023-04-12T03:12:51;136.85;;;54.00;;
55931;SDS011;41837;55.700;37.984;2023-04-12T03:15:18;152.63;;;54.78;;
55931;SDS011;41837;55.700;37.984;2023-04-12T03:17:47;143.80;;;52.65;;
55931;SDS011;41837;55.700;37.984;2023-04-12T03:20:16;166.32;;;52.80;;
55931;SDS011;41837;55.700;37.984;2023-04-12T03:22:49;172.75;;;53.72;;
55931;SDS011;41837;55.700;37.984;2023-04-12T03:25:16;264.00;;;71.22;;
55931;SDS011;41837;55.700;37.984;2023-04-12T03:27:49;321.33;;;81.15;;
55931;SDS011;41837;55.700;37.984;2023-04-12T03:30:18;479.52;;;119.68;;
55931;SDS011;41837;55.700;37.984;2023-04-12T03:32:45;487.98;;;123.13;;
55931;SDS011;41837;55.700;37.984;2023-04-12T03:35:12;527.95;;;129.88;;
55931;SDS011;41837;55.700;37.984;2023-04-12T03:37:41;454.35;;;116.03;;
55931;SDS011;41837;55.700;37.984;2023-04-12T03:40:08;412.80;;;115.28;;
55931;SDS011;41837;55.700;37.984;2023-04-12T03:42:37;746.60;;;226.52;;
55931;SDS011;41837;55.700;37.984;2023-04-12T03:45:11;525.53;;;141.48;;
55931;SDS011;41837;55.700;37.984;2023-04-12T03:47:41;289.65;;;81.18;;
55931;SDS011;41837;55.700;37.984;2023-04-12T03:50:08;369.05;;;101.13;;
55931;SDS011;41837;55.700;37.984;2023-04-12T03:52:35;348.02;;;94.75;;
55931;SDS011;41837;55.700;37.984;2023-04-12T03:55:05;302.65;;;84.97;;
55931;SDS011;41837;55.700;37.984;2023-04-12T03:57:32;280.10;;;80.18;;
55931;SDS011;41837;55.700;37.984;2023-04-12T03:59:59;270.83;;;76.68;;
55931;SDS011;41837;55.700;37.984;2023-04-12T04:02:32;204.43;;;63.55;;
55931;SDS011;41837;55.700;37.984;2023-04-12T04:05:01;207.07;;;61.25;;
55931;SDS011;41837;55.700;37.984;2023-04-12T04:07:28;170.82;;;55.95;;
55931;SDS011;41837;55.700;37.984;2023-04-12T04:09:56;175.18;;;56.28;;
55931;SDS011;41837;55.700;37.984;2023-04-12T04:12:26;134.10;;;51.08;;
55931;SDS011;41837;55.700;37.984;2023-04-12T04:14:54;158.70;;;51.40;;
55931;SDS011;41837;55.700;37.984;2023-04-12T04:17:30;118.38;;;43.13;;
55931;SDS011;41837;55.700;37.984;2023-04-12T04:19:56;105.53;;;45.03;;
55931;SDS011;41837;55.700;37.984;2023-04-12T04:22:23;89.82;;;40.38;;
55931;SDS011;41837;55.700;37.984;2023-04-12T04:24:51;99.65;;;40.92;;
55931;SDS011;41837;55.700;37.984;2023-04-12T04:27:18;89.68;;;41.60;;
55931;SDS011;41837;55.700;37.984;2023-04-12T04:29:46;89.18;;;40.45;;
55931;SDS011;41837;55.700;37.984;2023-04-12T04:32:14;106.40;;;40.97;;
55931;SDS011;41837;55.700;37.984;2023-04-12T04:34:42;92.00;;;41.92;;
55931;SDS011;41837;55.700;37.984;2023-04-12T04:37:11;86.40;;;38.90;;
55931;SDS011;41837;55.700;37.984;2023-04-12T04:39:40;87.20;;;38.97;;
55931;SDS011;41837;55.700;37.984;2023-04-12T04:42:07;91.38;;;38.95;;
55931;SDS011;41837;55.700;37.984;2023-04-12T04:44:37;87.38;;;43.53;;
55931;SDS011;41837;55.700;37.984;2023-04-12T04:47:06;84.35;;;43.67;;
55931;SDS011;41837;55.700;37.984;2023-04-12T04:49:34;103.97;;;45.60;;
55931;SDS011;41837;55.700;37.984;2023-04-12T04:52:06;91.40;;;44.35;;
55931;SDS011;41837;55.700;37.984;2023-04-12T04:54:33;98.07;;;41.00;;
55931;SDS011;41837;55.700;37.984;2023-04-12T04:57:03;82.80;;;38.67;;
55931;SDS011;41837;55.700;37.984;2023-04-12T04:59:34;80.57;;;38.97;;
55931;SDS011;41837;55.700;37.984;2023-04-12T05:02:11;72.93;;;38.15;;
55931;SDS011;41837;55.700;37.984;2023-04-12T05:04:38;79.93;;;38.78;;
55931;SDS011;41837;55.700;37.984;2023-04-12T05:07:05;75.78;;;37.83;;
55931;SDS011;41837;55.700;37.984;2023-04-12T05:09:31;75.53;;;37.80;;
55931;SDS011;41837;55.700;37.984;2023-04-12T05:11:58;77.93;;;38.33;;
55931;SDS011;41837;55.700;37.984;2023-04-12T05:14:25;80.25;;;37.75;;
55931;SDS011;41837;55.700;37.984;2023-04-12T05:16:51;71.60;;;39.08;;
55931;SDS011;41837;55.700;37.984;2023-04-12T05:19:17;69.97;;;38.17;;
55931;SDS011;41837;55.700;37.984;2023-04-12T05:21:43;77.90;;;38.92;;
55931;SDS011;41837;55.700;37.984;2023-04-12T05:24:10;70.97;;;36.20;;
55931;SDS011;41837;55.700;37.984;2023-04-12T05:26:37;82.15;;;40.50;;
55931;SDS011;41837;55.700;37.984;2023-04-12T05:29:09;80.00;;;39.75;;
55931;SDS011;41837;55.700;37.984;2023-04-12T05:31:36;77.25;;;39.58;;
55931;SDS011;41837;55.700;37.984;2023-04-12T05:34:06;78.43;;;38.20;;
55931;SDS011;41837;55.700;37.984;2023-04-12T05:36:52;92.55;;;39.67;;
55931;SDS011;41837;55.700;37.984;2023-04-12T05:39:19;93.40;;;45.15;;
55931;SDS011;41837;55.700;37.984;2023-04-12T05:41:47;73.72;;;40.58;;
55931;SDS011;41837;55.700;37.984;2023-04-12T05:44:13;81.45;;;42.20;;
55931;SDS011;41837;55.700;37.984;2023-04-12T05:46:42;74.70;;;42.03;;
55931;SDS011;41837;55.700;37.984;2023-04-12T05:49:08;91.30;;;45.03;;
55931;SDS011;41837;55.700;37.984;2023-04-12T05:51:34;95.63;;;47.92;;
55931;SDS011;41837;55.700;37.984;2023-04-12T05:54:00;85.22;;;46.00;;
55931;SDS011;41837;55.700;37.984;2023-04-12T05:56:32;76.72;;;41.85;;
55931;SDS011;41837;55.700;37.984;2023-04-12T05:59:00;90.60;;;41.55;;
55931;SDS011;41837;55.700;37.984;2023-04-12T06:01:27;74.15;;;35.30;;
55931;SDS011;41837;55.700;37.984;2023-04-12T06:03:59;87.47;;;36.63;;
55931;SDS011;41837;55.700;37.984;2023-04-12T06:06:26;49.22;;;28.83;;
55931;SDS011;41837;55.700;37.984;2023-04-12T06:09:07;52.33;;;26.58;;
55931;SDS011;41837;55.700;37.984;2023-04-12T06:11:46;51.78;;;26.35;;
55931;SDS011;41837;55.700;37.984;2023-04-12T06:14:12;53.15;;;25.63;;
55931;SDS011;41837;55.700;37.984;2023-04-12T06:16:39;53.08;;;27.77;;
55931;SDS011;41837;55.700;37.984;2023-04-12T06:19:05;50.25;;;26.67;;
55931;SDS011;41837;55.700;37.984;2023-04-12T06:21:31;54.33;;;26.27;;
55931;SDS011;41837;55.700;37.984;2023-04-12T06:23:57;51.33;;;25.65;;
55931;SDS011;41837;55.700;37.984;2023-04-12T06:26:24;45.97;;;23.95;;
55931;SDS011;41837;55.700;37.984;2023-04-12T06:28:50;46.95;;;23.90;;
55931;SDS011;41837;55.700;37.984;2023-04-12T06:31:17;51.28;;;23.50;;
55931;SDS011;41837;55.700;37.984;2023-04-12T06:33:43;42.63;;;22.30;;
55931;SDS011;41837;55.700;37.984;2023-04-12T06:36:10;46.05;;;22.25;;
55931;SDS011;41837;55.700;37.984;2023-04-12T06:38:37;53.13;;;20.67;;
55931;SDS011;41837;55.700;37.984;2023-04-12T06:41:03;40.72;;;17.80;;
55931;SDS011;41837;55.700;37.984;2023-04-12T06:43:30;45.30;;;17.92;;
55931;SDS011;41837;55.700;37.984;2023-04-12T06:45:56;28.02;;;16.40;;
55931;SDS011;41837;55.700;37.984;2023-04-12T06:48:23;41.03;;;16.75;;
55931;SDS011;41837;55.700;37.984;2023-04-12T06:50:49;31.17;;;15.90;;
55931;SDS011;41837;55.700;37.984;2023-04-12T06:53:15;27.42;;;15.70;;
55931;SDS011;41837;55.700;37.984;2023-04-12T06:55:41;22.88;;;13.50;;
55931;SDS011;41837;55.700;37.984;2023-04-12T06:58:08;23.08;;;12.70;;
55931;SDS011;41837;55.700;37.984;2023-04-12T07:00:35;27.48;;;13.18;;
55931;SDS011;41837;55.700;37.984;2023-04-12T07:03:02;23.75;;;13.05;;
55931;SDS011;41837;55.700;37.984;2023-04-12T07:05:28;26.50;;;13.43;;
55931;SDS011;41837;55.700;37.984;2023-04-12T07:07:54;25.02;;;10.73;;
55931;SDS011;41837;55.700;37.984;2023-04-12T07:10:20;23.98;;;10.82;;
55931;SDS011;41837;55.700;37.984;2023-04-12T07:12:46;18.92;;;10.73;;
55931;SDS011;41837;55.700;37.984;2023-04-12T07:15:14;21.83;;;11.07;;
55931;SDS011;41837;55.700;37.984;2023-04-12T07:17:40;18.58;;;10.30;;
55931;SDS011;41837;55.700;37.984;2023-04-12T07:20:06;20.50;;;10.73;;
55931;SDS011;41837;55.700;37.984;2023-04-12T07:22:33;16.23;;;9.25;;
55931;SDS011;41837;55.700;37.984;2023-04-12T07:24:59;11.93;;;7.43;;
55931;SDS011;41837;55.700;37.984;2023-04-12T07:27:25;10.75;;;7.15;;
55931;SDS011;41837;55.700;37.984;2023-04-12T07:29:51;17.13;;;8.18;;
55931;SDS011;41837;55.700;37.984;2023-04-12T07:32:18;14.65;;;8.88;;
55931;SDS011;41837;55.700;37.984;2023-04-12T07:34:44;14.65;;;8.40;;
55931;SDS011;41837;55.700;37.984;2023-04-12T07:37:10;12.63;;;8.52;;
55931;SDS011;41837;55.700;37.984;2023-04-12T07:39:37;20.35;;;8.82;;
55931;SDS011;41837;55.700;37.984;2023-04-12T07:42:05;17.00;;;8.95;;
55931;SDS011;41837;55.700;37.984;2023-04-12T07:44:31;25.15;;;11.05;;
55931;SDS011;41837;55.700;37.984;2023-04-12T07:46:58;19.98;;;9.73;;
55931;SDS011;41837;55.700;37.984;2023-04-12T07:49:24;15.57;;;9.85;;
55931;SDS011;41837;55.700;37.984;2023-04-12T07:51:50;14.35;;;9.88;;
55931;SDS011;41837;55.700;37.984;2023-04-12T07:54:16;12.68;;;9.20;;
55931;SDS011;41837;55.700;37.984;2023-04-12T07:56:55;21.95;;;10.27;;
55931;SDS011;41837;55.700;37.984;2023-04-12T07:59:26;16.50;;;9.07;;
55931;SDS011;41837;55.700;37.984;2023-04-12T08:01:53;20.23;;;10.63;;
55931;SDS011;41837;55.700;37.984;2023-04-12T08:04:20;16.67;;;9.82;;
55931;SDS011;41837;55.700;37.984;2023-04-12T08:06:46;19.27;;;10.48;;
55931;SDS011;41837;55.700;37.984;2023-04-12T08:09:12;15.15;;;9.75;;
55931;SDS011;41837;55.700;37.984;2023-04-12T08:11:38;14.85;;;9.20;;
55931;SDS011;41837;55.700;37.984;2023-04-12T08:14:05;17.98;;;9.25;;
55931;SDS011;41837;55.700;37.984;2023-04-12T08:16:34;15.88;;;9.10;;
55931;SDS011;41837;55.700;37.984;2023-04-12T08:19:00;14.80;;;8.63;;
55931;SDS011;41837;55.700;37.984;2023-04-12T08:21:26;14.38;;;8.90;;
55931;SDS011;41837;55.700;37.984;2023-04-12T08:23:54;13.48;;;8.80;;
55931;SDS011;41837;55.700;37.984;2023-04-12T08:26:21;16.08;;;9.32;;
55931;SDS011;41837;55.700;37.984;2023-04-12T08:28:48;23.00;;;8.65;;
55931;SDS011;41837;55.700;37.984;2023-04-12T08:31:14;12.35;;;8.68;;
55931;SDS011;41837;55.700;37.984;2023-04-12T08:33:42;19.42;;;8.45;;
55931;SDS011;41837;55.700;37.984;2023-04-12T08:36:08;22.42;;;9.23;;
55931;SDS011;41837;55.700;37.984;2023-04-12T08:38:38;16.48;;;9.02;;
55931;SDS011;41837;55.700;37.984;2023-04-12T08:41:04;19.25;;;9.02;;
55931;SDS011;41837;55.700;37.984;2023-04-12T08:43:31;16.15;;;9.07;;
55931;SDS011;41837;55.700;37.984;2023-04-12T08:45:59;18.27;;;8.55;;
55931;SDS011;41837;55.700;37.984;2023-04-12T08:48:27;16.10;;;8.68;;
55931;SDS011;41837;55.700;37.984;2023-04-12T08:50:57;29.05;;;9.10;;
55931;SDS011;41837;55.700;37.984;2023-04-12T08:53:23;16.05;;;8.20;;
55931;SDS011;41837;55.700;37.984;2023-04-12T08:55:50;18.02;;;8.25;;
55931;SDS011;41837;55.700;37.984;2023-04-12T08:58:16;21.45;;;9.73;;
55931;SDS011;41837;55.700;37.984;2023-04-12T09:00:43;19.98;;;9.10;;
55931;SDS011;41837;55.700;37.984;2023-04-12T09:03:11;14.30;;;7.65;;
55931;SDS011;41837;55.700;37.984;2023-04-12T09:05:37;16.40;;;7.80;;
55931;SDS011;41837;55.700;37.984;2023-04-12T09:08:03;16.88;;;7.22;;
55931;SDS011;41837;55.700;37.984;2023-04-12T09:10:31;11.32;;;6.72;;
55931;SDS011;41837;55.700;37.984;2023-04-12T09:13:07;12.35;;;7.55;;
55931;SDS011;41837;55.700;37.984;2023-04-12T09:15:33;12.50;;;7.72;;
55931;SDS011;41837;55.700;37.984;2023-04-12T09:18:05;20.95;;;9.30;;
55931;SDS011;41837;55.700;37.984;2023-04-12T09:20:34;16.02;;;8.57;;
55931;SDS011;41837;55.700;37.984;2023-04-12T09:23:14;14.98;;;7.43;;
55931;SDS011;41837;55.700;37.984;2023-04-12T09:25:42;14.25;;;7.25;;
55931;SDS011;41837;55.700;37.984;2023-04-12T09:30:44;13.90;;;7.68;;
55931;SDS011;41837;55.700;37.984;2023-04-12T09:33:19;18.33;;;7.82;;
55931;SDS011;41837;55.700;37.984;2023-04-12T09:35:47;21.23;;;8.48;;
55931;SDS011;41837;55.700;37.984;2023-04-12T09:38:14;11.90;;;6.57;;
55931;SDS011;41837;55.700;37.984;2023-04-12T09:40:40;10.43;;;6.82;;
55931;SDS011;41837;55.700;37.984;2023-04-12T09:43:09;17.05;;;7.68;;
55931;SDS011;41837;55.700;37.984;2023-04-12T09:45:36;15.55;;;7.30;;
55931;SDS011;41837;55.700;37.984;2023-04-12T09:48:06;12.23;;;6.72;;
55931;SDS011;41837;55.700;37.984;2023-04-12T09:50:32;9.45;;;6.68;;
55931;SDS011;41837;55.700;37.984;2023-04-12T09:53:02;12.10;;;7.13;;
55931;SDS011;41837;55.700;37.984;2023-04-12T09:55:40;12.38;;;6.80;;
55931;SDS011;41837;55.700;37.984;2023-04-12T09:58:06;11.20;;;6.03;;
55931;SDS011;41837;55.700;37.984;2023-04-12T10:00:34;10.77;;;6.13;;
55931;SDS011;41837;55.700;37.984;2023-04-12T10:03:01;10.43;;;6.80;;
55931;SDS011;41837;55.700;37.984;2023-04-12T10:05:27;11.52;;;6.45;;
55931;SDS011;41837;55.700;37.984;2023-04-12T10:07:55;10.93;;;6.22;;
55931;SDS011;41837;55.700;37.984;2023-04-12T10:10:24;10.32;;;6.55;;
55931;SDS011;41837;55.700;37.984;2023-04-12T10:12:50;11.75;;;6.93;;
55931;SDS011;41837;55.700;37.984;2023-04-12T10:15:17;12.65;;;7.60;;
55931;SDS011;41837;55.700;37.984;2023-04-12T10:17:47;11.02;;;7.30;;
55931;SDS011;41837;55.700;37.984;2023-04-12T10:20:16;15.05;;;8.13;;
55931;SDS011;41837;55.700;37.984;2023-04-12T10:22:47;17.27;;;7.05;;
55931;SDS011;41837;55.700;37.984;2023-04-12T10:25:18;11.43;;;6.30;;
55931;SDS011;41837;55.700;37.984;2023-04-12T10:27:46;10.73;;;7.25;;
55931;SDS011;41837;55.700;37.984;2023-04-12T10:35:47;10.00;;;6.90;;
55931;SDS011;41837;55.700;37.984;2023-04-12T10:38:23;12.60;;;6.65;;
55931;SDS011;41837;55.700;37.984;2023-04-12T10:41:11;13.75;;;7.20;;
55931;SDS011;41837;55.700;37.984;2023-04-12T10:43:44;14.13;;;7.50;;
55931;SDS011;41837;55.700;37.984;2023-04-12T10:49:09;15.20;;;7.72;;
55931;SDS011;41837;55.700;37.984;2023-04-12T10:51:39;13.85;;;7.75;;
55931;SDS011;41837;55.700;37.984;2023-04-12T10:56:52;18.98;;;6.80;;
55931;SDS011;41837;55.700;37.984;2023-04-12T11:02:15;12.77;;;7.10;;
55931;SDS011;41837;55.700;37.984;2023-04-12T11:05:07;12.35;;;7.40;;
55931;SDS011;41837;55.700;37.984;2023-04-12T11:08:07;12.73;;;7.03;;
55931;SDS011;41837;55.700;37.984;2023-04-12T11:13:37;13.07;;;7.15;;
55931;SDS011;41837;55.700;37.984;2023-04-12T11:16:04;14.65;;;7.90;;
55931;SDS011;41837;55.700;37.984;2023-04-12T11:18:32;11.93;;;7.20;;
55931;SDS011;41837;55.700;37.984;2023-04-12T11:20:59;23.67;;;8.35;;
55931;SDS011;41837;55.700;37.984;2023-04-12T11:23:27;15.15;;;7.70;;
55931;SDS011;41837;55.700;37.984;2023-04-12T11:25:54;20.50;;;7.63;;
55931;SDS011;41837;55.700;37.984;2023-04-12T11:28:21;20.15;;;8.07;;
55931;SDS011;41837;55.700;37.984;2023-04-12T11:30:48;14.07;;;6.57;;
55931;SDS011;41837;55.700;37.984;2023-04-12T11:33:36;13.68;;;7.45;;
55931;SDS011;41837;55.700;37.984;2023-04-12T11:38:34;15.95;;;7.13;;
55931;SDS011;41837;55.700;37.984;2023-04-12T11:41:01;17.70;;;8.35;;
55931;SDS011;41837;55.700;37.984;2023-04-12T11:43:27;13.45;;;6.10;;
55931;SDS011;41837;55.700;37.984;2023-04-12T11:45:57;11.85;;;6.25;;
55931;SDS011;41837;55.700;37.984;2023-04-12T11:48:24;16.63;;;6.13;;
55931;SDS011;41837;55.700;37.984;2023-04-12T11:50:51;15.90;;;6.95;;
55931;SDS011;41837;55.700;37.984;2023-04-12T11:53:18;12.90;;;6.82;;
55931;SDS011;41837;55.700;37.984;2023-04-12T11:55:49;10.75;;;6.22;;
55931;SDS011;41837;55.700;37.984;2023-04-12T11:58:16;16.60;;;6.28;;
55931;SDS011;41837;55.700;37.984;2023-04-12T12:00:43;14.52;;;7.53;;
55931;SDS011;41837;55.700;37.984;2023-04-12T12:03:10;13.50;;;7.07;;
55931;SDS011;41837;55.700;37.984;2023-04-12T12:05:37;22.10;;;7.32;;
55931;SDS011;41837;55.700;37.984;2023-04-12T12:08:06;11.02;;;6.75;;
55931;SDS011;41837;55.700;37.984;2023-04-12T12:10:34;14.55;;;7.65;;
55931;SDS011;41837;55.700;37.984;2023-04-12T12:13:01;14.38;;;7.78;;
55931;SDS011;41837;55.700;37.984;2023-04-12T12:15:28;11.95;;;7.78;;
55931;SDS011;41837;55.700;37.984;2023-04-12T12:17:56;16.02;;;7.10;;
55931;SDS011;41837;55.700;37.984;2023-04-12T12:20:23;12.32;;;7.05;;
55931;SDS011;41837;55.700;37.984;2023-04-12T12:22:49;13.77;;;6.57;;
55931;SDS011;41837;55.700;37.984;2023-04-12T12:25:19;12.35;;;7.28;;
55931;SDS011;41837;55.700;37.984;2023-04-12T12:27:45;13.02;;;6.40;;
55931;SDS011;41837;55.700;37.984;2023-04-12T12:30:16;14.55;;;7.03;;
55931;SDS011;41837;55.700;37.984;2023-04-12T12:32:44;12.73;;;6.22;;
55931;SDS011;41837;55.700;37.984;2023-04-12T12:35:12;11.52;;;6.75;;
55931;SDS011;41837;55.700;37.984;2023-04-12T12:37:59;10.65;;;6.47;;
55931;SDS011;41837;55.700;37.984;2023-04-12T12:40:28;12.57;;;6.82;;
55931;SDS011;41837;55.700;37.984;2023-04-12T12:42:57;13.57;;;7.05;;
55931;SDS011;41837;55.700;37.984;2023-04-12T12:45:25;13.80;;;7.30;;
55931;SDS011;41837;55.700;37.984;2023-04-12T12:50:31;20.35;;;7.80;;
55931;SDS011;41837;55.700;37.984;2023-04-12T12:52:59;31.13;;;9.57;;
55931;SDS011;41837;55.700;37.984;2023-04-12T12:55:26;15.40;;;7.18;;
55931;SDS011;41837;55.700;37.984;2023-04-12T12:57:53;11.38;;;6.97;;
55931;SDS011;41837;55.700;37.984;2023-04-12T13:00:21;11.70;;;6.63;;
55931;SDS011;41837;55.700;37.984;2023-04-12T13:02:49;9.38;;;6.80;;
55931;SDS011;41837;55.700;37.984;2023-04-12T13:05:16;12.50;;;7.38;;
55931;SDS011;41837;55.700;37.984;2023-04-12T13:07:42;17.52;;;7.38;;
55931;SDS011;41837;55.700;37.984;2023-04-12T13:10:09;10.02;;;7.22;;
55931;SDS011;41837;55.700;37.984;2023-04-12T13:12:35;13.75;;;7.68;;
55931;SDS011;41837;55.700;37.984;2023-04-12T13:15:02;11.35;;;7.18;;
55931;SDS011;41837;55.700;37.984;2023-04-12T13:17:29;16.00;;;7.95;;
55931;SDS011;41837;55.700;37.984;2023-04-12T13:19:56;10.52;;;6.80;;
55931;SDS011;41837;55.700;37.984;2023-04-12T13:22:23;12.65;;;7.47;;
55931;SDS011;41837;55.700;37.984;2023-04-12T13:24:50;16.42;;;7.72;;
55931;SDS011;41837;55.700;37.984;2023-04-12T13:27:16;14.45;;;8.27;;
55931;SDS011;41837;55.700;37.984;2023-04-12T13:29:42;16.55;;;8.93;;
55931;SDS011;41837;55.700;37.984;2023-04-12T13:32:09;17.00;;;8.68;;
55931;SDS011;41837;55.700;37.984;2023-04-12T13:34:35;18.52;;;8.20;;
55931;SDS011;41837;55.700;37.984;2023-04-12T13:37:02;16.08;;;8.07;;
55931;SDS011;41837;55.700;37.984;2023-04-12T13:39:29;14.48;;;8.15;;
55931;SDS011;41837;55.700;37.984;2023-04-12T13:41:56;13.38;;;8.07;;
55931;SDS011;41837;55.700;37.984;2023-04-12T13:44:22;15.63;;;8.45;;
55931;SDS011;41837;55.700;37.984;2023-04-12T13:46:49;15.68;;;8.02;;
55931;SDS011;41837;55.700;37.984;2023-04-12T13:49:16;13.07;;;8.35;;
55931;SDS011;41837;55.700;37.984;2023-04-12T13:51:42;14.65;;;8.52;;
55931;SDS011;41837;55.700;37.984;2023-04-12T13:54:08;19.20;;;8.55;;
55931;SDS011;41837;55.700;37.984;2023-04-12T13:56:34;18.90;;;8.23;;
55931;SDS011;41837;55.700;37.984;2023-04-12T13:59:00;16.90;;;8.80;;
55931;SDS011;41837;55.700;37.984;2023-04-12T14:01:28;22.25;;;8.20;;
55931;SDS011;41837;55.700;37.984;2023-04-12T14:03:54;19.48;;;8.50;;
55931;SDS011;41837;55.700;37.984;2023-04-12T14:06:21;15.40;;;8.40;;
55931;SDS011;41837;55.700;37.984;2023-04-12T14:08:47;12.80;;;7.88;;
55931;SDS011;41837;55.700;37.984;2023-04-12T14:11:13;17.88;;;8.43;;
55931;SDS011;41837;55.700;37.984;2023-04-12T14:13:40;25.13;;;8.02;;
55931;SDS011;41837;55.700;37.984;2023-04-12T14:16:08;22.17;;;8.85;;
55931;SDS011;41837;55.700;37.984;2023-04-12T14:18:35;16.40;;;7.88;;
55931;SDS011;41837;55.700;37.984;2023-04-12T14:21:01;13.07;;;7.57;;
55931;SDS011;41837;55.700;37.984;2023-04-12T14:23:28;19.25;;;8.48;;
55931;SDS011;41837;55.700;37.984;2023-04-12T14:25:54;13.63;;;7.95;;
55931;SDS011;41837;55.700;37.984;2023-04-12T14:28:21;18.45;;;8.00;;
55931;SDS011;41837;55.700;37.984;2023-04-12T14:30:51;24.40;;;8.32;;
55931;SDS011;41837;55.700;37.984;2023-04-12T14:33:17;16.27;;;8.07;;
55931;SDS011;41837;55.700;37.984;2023-04-12T14:35:43;14.20;;;8.10;;
55931;SDS011;41837;55.700;37.984;2023-04-12T14:38:10;16.02;;;8.10;;
55931;SDS011;41837;55.700;37.984;2023-04-12T14:40:37;14.63;;;8.50;;
55931;SDS011;41837;55.700;37.984;2023-04-12T14:43:03;14.35;;;8.88;;
55931;SDS011;41837;55.700;37.984;2023-04-12T14:45:30;15.40;;;8.52;;
55931;SDS011;41837;55.700;37.984;2023-04-12T14:47:56;15.23;;;8.57;;
55931;SDS011;41837;55.700;37.984;2023-04-12T14:50:22;13.85;;;8.13;;
55931;SDS011;41837;55.700;37.984;2023-04-12T14:52:49;13.30;;;8.43;;
55931;SDS011;41837;55.700;37.984;2023-04-12T14:55:14;12.75;;;8.70;;